TAY25Q EGSS-LOWI
Flight info
| Callsign | TAY25Q |
|---|---|
| Flight time | N/A |
| Altitude | 33000 |
| Route | CLN M84 KONAN DCT KOK DCT DEMUL DCT PITES DCT EDISA DCT PICWI DCT BATUB M738 MADEB MADEB1B |
| Aircraft | B738/M-SDE2E3FGHIRWXY/LB1 |
Departure
| Time | 2026-05-04 16:08 |
|---|---|
| Airport | London Stansted Airport (EGSS) |
Arrival
| Time | N/A |
|---|---|
| Airport | Innsbruck Airport (LOWI) |
| Time | Latitude | Longitude | Altitude | Speed | Heading |
|---|---|---|---|---|---|
| 2026-05-04 15:43 | 51.88759 | 0.25099 | 351 ft | 0 kts | 222° |
| 2026-05-04 15:58 | 51.88763 | 0.25104 | 351 ft | 3 kts | 222° |
| 2026-05-04 15:58 | 51.88768 | 0.25112 | 351 ft | 3 kts | 222° |
| 2026-05-04 15:59 | 51.88778 | 0.25126 | 351 ft | 0 kts | 222° |
| 2026-05-04 16:04 | 51.88776 | 0.25114 | 356 ft | 2 kts | 262° |
| 2026-05-04 16:04 | 51.88802 | 0.25083 | 359 ft | 8 kts | 336° |
| 2026-05-04 16:05 | 51.88871 | 0.25071 | 358 ft | 11 kts | 353° |
| 2026-05-04 16:05 | 51.88949 | 0.24985 | 354 ft | 16 kts | 310° |
| 2026-05-04 16:05 | 51.89130 | 0.24910 | 358 ft | 18 kts | 41° |
| 2026-05-04 16:06 | 51.89221 | 0.25067 | 357 ft | 20 kts | 55° |
| 2026-05-04 16:06 | 51.89417 | 0.25152 | 354 ft | 8 kts | 314° |
| 2026-05-04 16:07 | 51.89427 | 0.25136 | 354 ft | 0 kts | 312° |
| 2026-05-04 16:07 | 51.89428 | 0.24873 | 350 ft | 18 kts | 222° |
| 2026-05-04 16:08 | 51.89191 | 0.24516 | 352 ft | 82 kts | 223° |
| 2026-05-04 16:08 | 51.86852 | 0.21087 | 1268 ft | 181 kts | 225° |
| 2026-05-04 16:09 | 51.84962 | 0.18358 | 3021 ft | 174 kts | 218° |
| 2026-05-04 16:09 | 51.82703 | 0.18983 | 4006 ft | 206 kts | 123° |
| 2026-05-04 16:10 | 51.81341 | 0.23327 | 4825 ft | 225 kts | 129° |
| 2026-05-04 16:11 | 51.81419 | 0.30648 | 6066 ft | 254 kts | 82° |
| 2026-05-04 16:11 | 51.81630 | 0.33481 | 6488 ft | 261 kts | 85° |
| 2026-05-04 16:12 | 51.82060 | 0.42368 | 8039 ft | 265 kts | 87° |
| 2026-05-04 16:12 | 51.82432 | 0.51336 | 9486 ft | 274 kts | 86° |
| 2026-05-04 16:13 | 51.82679 | 0.57432 | 10513 ft | 275 kts | 86° |
| 2026-05-04 16:13 | 51.82932 | 0.63736 | 11243 ft | 285 kts | 86° |
| 2026-05-04 16:14 | 51.83186 | 0.70195 | 12185 ft | 286 kts | 86° |
| 2026-05-04 16:14 | 51.83435 | 0.76597 | 13237 ft | 286 kts | 86° |
| 2026-05-04 16:15 | 51.83796 | 0.86267 | 14101 ft | 328 kts | 87° |
| 2026-05-04 16:16 | 51.84077 | 0.94123 | 14457 ft | 372 kts | 88° |
| 2026-05-04 16:16 | 51.84533 | 1.07000 | 16259 ft | 390 kts | 88° |
| 2026-05-04 16:17 | 51.83288 | 1.15215 | 17779 ft | 385 kts | 127° |
| 2026-05-04 16:18 | 51.76997 | 1.23299 | 19595 ft | 390 kts | 149° |
| 2026-05-04 16:18 | 51.74694 | 1.25637 | 20162 ft | 394 kts | 149° |
| 2026-05-04 16:19 | 51.67703 | 1.32916 | 21834 ft | 402 kts | 150° |
| 2026-05-04 16:19 | 51.62498 | 1.36162 | 22896 ft | 404 kts | 171° |
| 2026-05-04 16:20 | 51.54047 | 1.36876 | 24344 ft | 408 kts | 179° |
| 2026-05-04 16:20 | 51.48335 | 1.37188 | 25183 ft | 413 kts | 179° |
| 2026-05-04 16:21 | 51.40640 | 1.42963 | 26332 ft | 432 kts | 132° |
| 2026-05-04 16:22 | 51.36957 | 1.50631 | 27089 ft | 438 kts | 129° |
| 2026-05-04 16:22 | 51.31408 | 1.62385 | 28157 ft | 444 kts | 130° |
| 2026-05-04 16:23 | 51.25706 | 1.74173 | 29167 ft | 450 kts | 130° |
| 2026-05-04 16:24 | 51.18078 | 1.89832 | 30929 ft | 443 kts | 131° |
| 2026-05-04 16:25 | 51.14525 | 1.97738 | 31719 ft | 444 kts | 120° |
| 2026-05-04 16:26 | 51.12083 | 2.17173 | 32976 ft | 457 kts | 97° |
| 2026-05-04 16:26 | 51.11350 | 2.32422 | 32977 ft | 460 kts | 98° |
| 2026-05-04 16:28 | 51.09951 | 2.57375 | 32987 ft | 455 kts | 99° |
| 2026-05-04 16:28 | 51.07582 | 2.71625 | 32984 ft | 443 kts | 121° |
| 2026-05-04 16:29 | 51.02044 | 2.88561 | 32983 ft | 444 kts | 122° |
| 2026-05-04 16:31 | 50.95054 | 3.10142 | 32975 ft | 444 kts | 121° |
| 2026-05-04 16:32 | 50.86596 | 3.36124 | 32960 ft | 443 kts | 122° |
| 2026-05-04 16:33 | 50.81378 | 3.52012 | 32953 ft | 442 kts | 122° |
| 2026-05-04 16:34 | 50.77103 | 3.64953 | 32952 ft | 442 kts | 122° |